Pagina principale
METAR-TAF:

METAR-TAF

Aeroporti :

Aeroporto di Amsterdam-Schiphol

Amsterdam, Paesi Bassi

latitudine: 52-18N, longitudine: 004-46E, altezza: -4 m

Osservazione

Il bollettino è stato emesso 29 minuti fa, alle 23:25 UTC
Vento 9 kt da est/nord-est
Temperature 23°C
Umidità 73%
Pressione 1015 hPa
Visibilità 10 km o più
nessuna nube inferiore a 1500 m e nessun cumulonembo

METAR: EHAM 092325Z 06009KT CAVOK 23/18 Q1015 NOSIG

Ora: 01:54 (23:54 UTC)

Previsione

Il bollettino è stato emesso 52 minuti fa, alle 23:02 UTC
Previsione valida dal 10 alle 00 UTC al 11 alle 06 UTC
Vento 7 kt da nord-est
Visibilità 10 km o più
nessuna nube inferiore a 1500 m e nessun cumulonembo
Evoluzione graduale
dal 10 alle 09 UTC al 10 alle 12 UTC
Vento 10 kt da est

TAF: EHAM 092302Z 1000/1106 05007KT CAVOK BECMG 1009/1012 09010KT

Osservazioni e previsioni meteorologiche di più di 4000 aeroporti (messaggi METAR e TAF).

Le stazioni disponibili sono rappresentate dai dischi gialli e rossi sulla carta.

Puntare il mouse per vedere il nome della stazione.

Clicca sopra per visualizzare le osservazioni e previsioni meteorologiche.

Per cambiare la mappa : fare clic sui pulsanti verdi con una croce nera per ingrandire, il pulsante verde con un trattino per diminuire, o sulla freccia verde per le mappe adiacenti.


METAR-TAF: